Time;durP1;ratioP1;P1;durP2;ratioP2;P2;SDS_P1;SDS_P2;PMS_P1;PMS_P2;Temp;Humidity;BMP_temperature;BMP_pressure;BME280_temperature;BME280_humidity;BME280_pressure;Samples;Min_cycle;Max_cycle;Signal;HPM_P1;HPM_P2
2023/03/15 00:02:10;;;;;;;5.70;3.70;;;;;;;3.77;100.00;98977.83;105477;1296;26774;-77
2023/03/15 00:04:44;;;;;;;7.60;3.40;;;;;;;3.75;100.00;98952.57;105483;1296;22586;-76
2023/03/15 00:07:12;;;;;;;5.20;3.50;;;;;;;3.72;100.00;98935.60;105492;1296;22554;-77
2023/03/15 00:09:41;;;;;;;4.20;3.30;;;;;;;3.68;100.00;98926.48;105470;1296;22542;-76
2023/03/15 00:12:13;;;;;;;5.50;3.40;;;;;;;3.66;100.00;98924.61;105567;1296;25447;-76
2023/03/15 00:14:43;;;;;;;5.00;3.50;;;;;;;3.63;100.00;98922.57;105423;1296;25334;-76
2023/03/15 00:17:11;;;;;;;5.10;3.50;;;;;;;3.62;100.00;98923.52;105453;1296;25527;-76
2023/03/15 00:19:48;;;;;;;5.10;3.20;;;;;;;3.64;100.00;98923.52;105512;1296;23909;-76
2023/03/15 00:22:17;;;;;;;5.50;3.00;;;;;;;3.67;100.00;98923.23;105444;1296;22542;-77
2023/03/15 00:24:45;;;;;;;8.00;3.80;;;;;;;3.70;100.00;98925.94;105301;1296;22703;-77
2023/03/15 00:27:14;;;;;;;5.30;3.20;;;;;;;3.73;100.00;98925.98;105456;1296;23540;-75
2023/03/15 00:29:43;;;;;;;6.30;3.60;;;;;;;3.75;100.00;98918.66;105459;1296;22818;-76
2023/03/15 00:32:12;;;;;;;7.40;3.30;;;;;;;3.77;100.00;98918.33;104824;1296;1003202;-76
2023/03/15 00:34:47;;;;;;;5.30;3.30;;;;;;;3.78;100.00;98912.30;105266;1296;25954;-76
2023/03/15 00:37:21;;;;;;;4.80;3.60;;;;;;;3.78;100.00;98905.52;105427;1296;24266;-76
2023/03/15 00:39:49;;;;;;;6.40;3.70;;;;;;;3.76;100.00;98895.54;105520;1296;25984;-75
2023/03/15 00:42:18;;;;;;;4.60;3.10;;;;;;;3.74;100.00;98889.94;105298;1296;25943;-76
2023/03/15 00:44:49;;;;;;;8.70;3.30;;;;;;;3.69;100.00;98886.83;105557;1296;25458;-75
2023/03/15 00:47:18;;;;;;;7.70;3.50;;;;;;;3.63;100.00;98888.29;105345;1296;22611;-76
2023/03/15 00:49:49;;;;;;;4.70;3.30;;;;;;;3.57;100.00;98875.07;104645;1296;1003218;-75
2023/03/15 00:52:18;;;;;;;6.60;3.40;;;;;;;3.51;100.00;98873.05;105742;1296;23876;-77
2023/03/15 00:54:54;;;;;;;3.80;3.20;;;;;;;3.45;100.00;98875.77;105452;1296;26541;-76
2023/03/15 00:57:23;;;;;;;4.40;2.80;;;;;;;3.37;100.00;98871.29;105399;1296;24247;-78
2023/03/15 00:59:52;;;;;;;7.90;3.50;;;;;;;3.30;100.00;98876.48;105384;1296;25571;-76
2023/03/15 01:02:23;;;;;;;3.90;3.10;;;;;;;3.23;100.00;98888.73;105475;1296;24401;-77
2023/03/15 01:04:52;;;;;;;5.20;3.30;;;;;;;3.17;100.00;98892.30;105454;1296;25982;-76
2023/03/15 01:07:21;;;;;;;7.20;3.40;;;;;;;3.12;100.00;98902.29;105310;1296;23917;-76
2023/03/15 01:09:49;;;;;;;3.00;2.70;;;;;;;3.07;100.00;98900.55;104733;1296;1002741;-76
2023/03/15 01:12:18;;;;;;;6.40;3.40;;;;;;;3.02;100.00;98909.02;105444;1296;25444;-76
2023/03/15 01:14:48;;;;;;;7.00;3.10;;;;;;;2.99;100.00;98922.81;105464;1296;22542;-77
2023/03/15 01:17:16;;;;;;;5.00;2.90;;;;;;;2.97;100.00;98933.83;104475;1296;1002375;-75
2023/03/15 01:19:45;;;;;;;4.20;3.10;;;;;;;2.99;100.00;98954.65;107933;1296;22066;-73
2023/03/15 01:22:13;;;;;;;3.90;2.90;;;;;;;3.01;100.00;98962.09;107606;1296;22539;-76
2023/03/15 01:24:43;;;;;;;3.30;3.00;;;;;;;3.03;100.00;98967.59;104948;1296;1003043;-75
2023/03/15 01:27:12;;;;;;;5.90;3.50;;;;;;;3.06;100.00;98963.48;105337;1296;25447;-76
2023/03/15 01:29:41;;;;;;;6.20;3.70;;;;;;;3.06;100.00;98960.23;105376;1296;25927;-76
2023/03/15 01:32:10;;;;;;;5.50;3.70;;;;;;;3.05;100.00;98953.39;104607;1291;1003395;-77
2023/03/15 01:34:42;;;;;;;6.80;3.90;;;;;;;3.03;100.00;98953.42;104729;1296;1003011;-77
2023/03/15 01:37:13;;;;;;;6.10;3.70;;;;;;;3.00;100.00;98947.29;105359;1296;25443;-76
2023/03/15 01:39:44;;;;;;;3.70;2.90;;;;;;;2.98;100.00;98951.23;105479;1296;24394;-76
2023/03/15 01:42:15;;;;;;;10.60;3.50;;;;;;;2.95;100.00;98948.46;105324;1296;25447;-76
2023/03/15 01:44:55;;;;;;;5.10;2.90;;;;;;;2.94;100.00;98953.25;105471;1296;25328;-76
2023/03/15 01:47:24;;;;;;;5.90;3.40;;;;;;;2.93;100.00;98961.36;105287;1297;26021;-75
2023/03/15 01:50:05;;;;;;;4.80;3.00;;;;;;;2.94;100.00;98973.71;105200;1297;25400;-77
2023/03/15 01:52:36;;;;;;;7.20;3.60;;;;;;;2.96;100.00;98973.85;105231;1297;22688;-76
2023/03/15 01:55:12;;;;;;;9.50;3.60;;;;;;;2.99;100.00;98978.48;105419;1297;25376;-76
2023/03/15 01:57:56;;;;;;;5.40;3.20;;;;;;;3.03;100.00;98984.02;104647;1297;1002491;-76
2023/03/15 02:00:26;;;;;;;5.00;3.40;;;;;;;3.06;100.00;98989.48;105233;1297;24258;-76
2023/03/15 02:03:13;;;;;;;6.30;3.50;;;;;;;3.09;100.00;98990.42;105487;1297;26117;-77
2023/03/15 02:05:46;;;;;;;7.70;3.30;;;;;;;3.11;100.00;98982.53;105486;1297;22570;-78
2023/03/15 02:08:21;;;;;;;6.30;3.40;;;;;;;3.14;100.00;98978.89;105345;1297;25369;-75
2023/03/15 02:10:52;;;;;;;3.40;2.70;;;;;;;3.15;100.00;98978.10;105211;1297;25525;-76
2023/03/15 02:13:22;;;;;;;6.20;3.30;;;;;;;3.16;100.00;98973.70;105277;1297;22614;-76
2023/03/15 02:15:52;;;;;;;6.60;3.30;;;;;;;3.17;100.00;98976.28;105427;1297;25436;-76
2023/03/15 02:18:35;;;;;;;5.80;3.10;;;;;;;3.16;100.00;98969.56;105254;1297;22552;-77
2023/03/15 02:21:18;;;;;;;;;;;;;;;3.16;100.00;98965.13;105274;1297;25955;-76
2023/03/15 02:23:58;;;;;;;5.80;2.90;;;;;;;3.16;100.00;98962.98;105343;1297;26743;-77
2023/03/15 02:26:35;;;;;;;4.10;2.80;;;;;;;3.15;100.00;98961.45;105254;1297;25306;-76
2023/03/15 02:29:04;;;;;;;5.40;2.80;;;;;;;3.15;100.00;98960.81;104516;1297;1003566;-77
2023/03/15 02:31:36;;;;;;;9.60;3.20;;;;;;;3.15;100.00;98960.44;105321;1296;22545;-76
2023/03/15 02:34:06;;;;;;;;;;;;;;;3.15;100.00;98959.38;105292;1296;23084;-77
2023/03/15 02:36:35;;;;;;;7.30;3.10;;;;;;;3.14;100.00;98956.60;104767;1296;1003283;-78
2023/03/15 02:39:18;;;;;;;7.90;3.30;;;;;;;3.14;100.00;98955.52;105445;1296;25471;-80
2023/03/15 02:41:49;;;;;;;8.70;3.30;;;;;;;3.15;100.00;98954.56;105416;1296;22587;-75
2023/03/15 02:44:29;;;;;;;7.50;3.90;;;;;;;3.15;100.00;98955.83;104695;1296;1003145;-76
2023/03/15 02:47:01;;;;;;;5.80;3.50;;;;;;;3.15;100.00;98954.02;105495;1296;26592;-76
2023/03/15 02:49:30;;;;;;;4.10;3.20;;;;;;;3.14;100.00;98958.00;104528;1298;1003716;-76
2023/03/15 02:51:59;;;;;;;5.20;3.10;;;;;;;3.14;100.00;98950.55;105362;1297;25274;-76
2023/03/15 02:54:28;;;;;;;3.60;3.10;;;;;;;3.13;100.00;98947.96;105258;1298;25474;-76
2023/03/15 02:56:57;;;;;;;7.10;3.30;;;;;;;3.12;100.00;98948.63;105227;1297;25388;-76
2023/03/15 02:59:26;;;;;;;4.20;2.80;;;;;;;3.12;100.00;98949.36;105393;1297;22485;-76
2023/03/15 03:01:55;;;;;;;5.30;3.60;;;;;;;3.11;100.00;98947.45;105477;1297;22566;-75
2023/03/15 03:04:23;;;;;;;4.40;3.50;;;;;;;3.11;100.00;98952.63;105329;1297;25456;-76
2023/03/15 03:06:52;;;;;;;5.50;3.50;;;;;;;3.11;100.00;98949.11;105350;1297;22551;-76
2023/03/15 03:09:23;;;;;;;7.00;4.40;;;;;;;3.11;100.00;98943.34;104660;1297;1003309;-76
2023/03/15 03:11:52;;;;;;;4.90;4.30;;;;;;;3.10;100.00;98939.06;105196;1297;25460;-76
2023/03/15 03:14:22;;;;;;;5.90;4.00;;;;;;;3.08;100.00;98941.20;105222;1297;22555;-76
2023/03/15 03:16:53;;;;;;;5.50;3.90;;;;;;;3.06;100.00;98934.40;105359;1297;25733;-79
2023/03/15 03:19:25;;;;;;;4.30;3.10;;;;;;;3.06;100.00;98929.05;104672;1297;1003185;-76
2023/03/15 03:21:58;;;;;;;9.00;4.60;;;;;;;3.05;100.00;98925.73;105319;1297;25470;-77
2023/03/15 03:24:28;;;;;;;4.20;3.80;;;;;;;3.05;100.00;98924.38;105226;1297;25328;-77
2023/03/15 03:26:57;;;;;;;4.20;3.60;;;;;;;3.02;100.00;98921.03;105374;1297;26532;-76
2023/03/15 03:29:28;;;;;;;7.50;3.30;;;;;;;3.00;100.00;98919.16;105439;1296;24395;-77
2023/03/15 03:31:57;;;;;;;4.20;2.80;;;;;;;2.98;100.00;98921.85;104746;1296;1003388;-77
2023/03/15 03:34:30;;;;;;;5.50;3.20;;;;;;;2.95;100.00;98917.32;105497;1296;25484;-77
2023/03/15 03:36:59;;;;;;;8.20;3.50;;;;;;;2.92;100.00;98919.23;105526;1296;25975;-78
2023/03/15 03:39:48;;;;;;;6.40;3.60;;;;;;;2.89;100.00;98913.66;105374;1296;25396;-77
2023/03/15 03:42:17;;;;;;;5.40;4.00;;;;;;;2.85;100.00;98912.60;105456;1296;26072;-79
2023/03/15 03:44:46;;;;;;;5.40;3.70;;;;;;;2.80;100.00;98915.52;105486;1296;22544;-77
2023/03/15 03:47:15;;;;;;;4.80;3.40;;;;;;;2.74;100.00;98915.25;104719;1280;1003411;-77
2023/03/15 03:49:43;;;;;;;5.40;3.10;;;;;;;2.65;100.00;98910.23;104622;1296;1002517;-78
2023/03/15 03:52:16;;;;;;;7.60;3.60;;;;;;;2.55;100.00;98912.61;107650;1296;25438;-77
2023/03/15 03:54:46;;;;;;;4.80;3.50;;;;;;;2.47;100.00;98903.80;106408;1296;23407;-79
2023/03/15 03:57:15;;;;;;;4.90;3.40;;;;;;;2.39;100.00;98902.42;104891;1296;1003798;-77
2023/03/15 03:59:44;;;;;;;7.10;3.80;;;;;;;2.32;100.00;98900.30;105575;1296;25968;-76
2023/03/15 04:02:13;;;;;;;5.30;3.40;;;;;;;2.24;100.00;98900.63;105554;1296;22565;-77
2023/03/15 04:04:49;;;;;;;4.40;3.30;;;;;;;2.17;100.00;98904.67;105368;1296;25444;-76
2023/03/15 04:07:20;;;;;;;4.30;3.00;;;;;;;2.11;100.00;98904.92;105527;1296;25273;-78
2023/03/15 04:09:49;;;;;;;6.10;3.00;;;;;;;2.04;100.00;98911.60;105720;1296;25673;-75
2023/03/15 04:12:18;;;;;;;6.00;3.20;;;;;;;1.99;100.00;98906.95;105392;1296;22542;-78
2023/03/15 04:14:48;;;;;;;7.90;3.50;;;;;;;1.94;100.00;98910.29;105497;1296;26029;-77
2023/03/15 04:17:18;;;;;;;5.60;3.50;;;;;;;1.89;100.00;98908.53;105271;1296;22650;-79
2023/03/15 04:19:48;;;;;;;10.60;5.20;;;;;;;1.85;100.00;98912.94;105461;1296;25999;-77
2023/03/15 04:22:22;;;;;;;10.50;4.40;;;;;;;1.82;100.00;98912.70;105206;1296;22571;-76
2023/03/15 04:25:08;;;;;;;10.00;4.40;;;;;;;1.81;100.00;98917.09;105520;1296;25270;-77
2023/03/15 04:27:57;;;;;;;4.80;3.40;;;;;;;1.80;100.00;98916.14;105386;1296;24280;-77
2023/03/15 04:30:46;;;;;;;3.80;3.00;;;;;;;1.80;100.00;98914.71;105474;1296;26513;-76
2023/03/15 04:33:34;;;;;;;9.90;3.80;;;;;;;1.80;100.00;98911.69;105456;1296;24999;-75
2023/03/15 04:36:22;;;;;;;14.40;6.20;;;;;;;1.81;100.00;98918.86;105530;1296;22595;-77
2023/03/15 04:39:05;;;;;;;10.30;4.90;;;;;;;1.83;100.00;98929.38;105414;1296;25451;-76
2023/03/15 04:42:04;;;;;;;7.20;3.60;;;;;;;1.84;100.00;98937.82;104032;1296;1003392;-76
2023/03/15 04:45:03;;;;;;;6.10;3.20;;;;;;;1.86;100.00;98944.56;105428;1290;25491;-76
2023/03/15 04:47:44;;;;;;;6.70;3.00;;;;;;;1.88;100.00;98952.88;105693;1296;24403;-77
2023/03/15 04:50:45;;;;;;;7.60;3.40;;;;;;;1.91;100.00;98949.27;105130;1296;24321;-78
2023/03/15 04:53:38;;;;;;;5.80;3.20;;;;;;;1.94;100.00;98942.95;105119;1296;23891;-76
2023/03/15 04:56:18;;;;;;;13.70;3.40;;;;;;;1.98;100.00;98945.21;105402;1296;22691;-76
2023/03/15 04:59:11;;;;;;;6.80;3.20;;;;;;;2.05;100.00;98946.89;105460;1296;26069;-76
2023/03/15 05:01:58;;;;;;;3.70;3.00;;;;;;;2.13;100.00;98947.60;105461;1296;26543;-75
2023/03/15 05:04:35;;;;;;;5.40;2.80;;;;;;;2.20;100.00;98944.02;105511;1296;26606;-77
2023/03/15 05:07:24;;;;;;;4.20;2.90;;;;;;;2.31;100.00;98947.64;105386;1296;22534;-75
2023/03/15 05:10:11;;;;;;;4.50;3.20;;;;;;;2.44;100.00;98944.82;105501;1296;24950;-77
2023/03/15 05:12:51;;;;;;;5.50;2.70;;;;;;;2.57;100.00;98943.27;105341;1296;23914;-76
2023/03/15 05:15:31;;;;;;;3.70;2.80;;;;;;;2.69;100.00;98935.52;105509;1296;23994;-76
2023/03/15 05:18:15;;;;;;;8.50;3.70;;;;;;;2.81;100.00;98917.63;105492;1296;25429;-76
2023/03/15 05:21:20;;;;;;;10.40;4.40;;;;;;;2.93;100.00;98912.59;103966;1303;1003472;-76
2023/03/15 05:24:07;;;;;;;6.50;3.10;;;;;;;3.04;100.00;98900.96;105360;1296;25832;-75
2023/03/15 05:26:53;;;;;;;4.40;2.90;;;;;;;3.16;100.00;98885.83;105364;1296;25267;-77
2023/03/15 05:30:03;;;;;;;8.80;3.20;;;;;;;3.28;100.00;98862.80;105234;1290;26550;-76
2023/03/15 05:32:43;;;;;;;5.00;3.00;;;;;;;3.35;100.00;98846.73;105548;1296;25394;-76
2023/03/15 05:35:12;;;;;;;4.20;3.00;;;;;;;3.42;100.00;98822.52;105557;1296;23357;-77
2023/03/15 05:38:00;;;;;;;10.90;3.00;;;;;;;3.51;100.00;98797.27;105474;1296;24278;-76
2023/03/15 05:40:44;;;;;;;6.00;3.60;;;;;;;3.60;100.00;98785.44;105550;1296;25830;-77
2023/03/15 05:43:35;;;;;;;11.80;3.50;;;;;;;3.68;100.00;98779.88;105403;1296;25629;-76
2023/03/15 05:46:17;;;;;;;5.20;2.90;;;;;;;3.76;100.00;98773.45;104847;1296;1002940;-77
2023/03/15 05:49:09;;;;;;;9.20;3.20;;;;;;;3.87;100.00;98763.44;105660;1290;25448;-76
2023/03/15 05:51:56;;;;;;;7.80;3.30;;;;;;;3.99;100.00;98760.80;105454;1296;25249;-78
2023/03/15 05:54:41;;;;;;;4.90;3.50;;;;;;;4.11;100.00;98754.86;105581;1296;25472;-76
2023/03/15 05:57:30;;;;;;;5.60;3.60;;;;;;;4.28;100.00;98756.61;105387;1296;25451;-76
2023/03/15 06:00:18;;;;;;;13.90;3.60;;;;;;;4.45;100.00;98754.73;105480;1296;22599;-73
2023/03/15 06:02:49;;;;;;;9.60;3.70;;;;;;;4.59;100.00;98751.63;105690;1289;25472;-72
2023/03/15 06:05:38;;;;;;;6.90;3.40;;;;;;;4.78;100.00;98755.44;105293;1296;23888;-73
2023/03/15 06:08:10;;;;;;;4.10;3.60;;;;;;;4.92;100.00;98754.64;104846;1293;1003325;-76
2023/03/15 06:10:43;;;;;;;;;;;;;;;5.05;100.00;98752.21;105586;1296;25483;-76
2023/03/15 06:13:12;;;;;;;8.30;3.60;;;;;;;5.19;100.00;98750.33;105407;1296;25993;-76
2023/03/15 06:15:45;;;;;;;8.30;4.20;;;;;;;5.31;100.00;98757.56;104694;1296;1003642;-76
2023/03/15 06:18:18;;;;;;;9.00;4.70;;;;;;;5.46;100.00;98751.46;105463;1296;25981;-77
2023/03/15 06:20:50;;;;;;;6.60;4.00;;;;;;;5.63;100.00;98756.39;105482;1296;26519;-77
2023/03/15 06:23:25;;;;;;;15.20;4.40;;;;;;;5.78;100.00;98771.37;104750;1296;1003062;-77
2023/03/15 06:25:54;;;;;;;8.90;4.20;;;;;;;5.94;100.00;98777.77;106154;1290;23607;-73
2023/03/15 06:28:22;;;;;;;9.20;3.90;;;;;;;6.13;100.00;98771.77;107484;1287;22847;-71
2023/03/15 06:31:11;;;;;;;7.00;3.60;;;;;;;6.31;100.00;98790.12;106087;1293;23318;-75
2023/03/15 06:33:48;;;;;;;12.20;5.00;;;;;;;6.44;100.00;98819.99;105499;1290;22660;-75
2023/03/15 06:36:17;;;;;;;17.80;5.80;;;;;;;6.59;100.00;98842.63;105349;1293;25378;-75
2023/03/15 06:38:46;;;;;;;8.80;4.20;;;;;;;6.79;100.00;98840.06;105455;1293;25677;-74
2023/03/15 06:41:14;;;;;;;11.50;4.20;;;;;;;6.99;100.00;98869.02;105438;1290;22582;-75
2023/03/15 06:43:50;;;;;;;11.80;4.00;;;;;;;7.21;100.00;98880.19;105387;1290;25579;-75
2023/03/15 06:46:19;;;;;;;15.00;4.60;;;;;;;7.40;100.00;98902.85;105350;1289;23755;-76
2023/03/15 06:48:48;;;;;;;13.40;4.70;;;;;;;7.57;100.00;98928.86;105538;1290;23930;-75
2023/03/15 06:51:18;;;;;;;9.60;3.90;;;;;;;7.73;100.00;98956.55;105429;1290;25504;-74
2023/03/15 06:53:50;;;;;;;10.10;4.30;;;;;;;7.94;100.00;98960.27;106176;1290;22643;-74
2023/03/15 06:56:20;;;;;;;11.60;4.30;;;;;;;8.14;100.00;98980.90;105673;1295;24033;-74
2023/03/15 06:58:49;;;;;;;6.10;3.40;;;;;;;8.31;100.00;99008.30;105415;1290;26776;-74
2023/03/15 07:01:21;;;;;;;15.60;4.80;;;;;;;8.35;100.00;99057.25;105415;1289;25444;-68
2023/03/15 07:03:50;;;;;;;23.10;10.20;;;;;;;8.45;100.00;99060.63;105395;1293;26595;-69
2023/03/15 07:06:19;;;;;;;18.00;6.00;;;;;;;8.60;100.00;99073.20;105393;1290;22545;-67
2023/03/15 07:08:49;;;;;;;17.70;5.40;;;;;;;8.76;100.00;99087.15;105514;1290;26610;-68
2023/03/15 07:11:18;;;;;;;11.30;4.70;;;;;;;8.90;100.00;99088.41;105127;1297;25445;-69
2023/03/15 07:13:46;;;;;;;12.70;4.90;;;;;;;9.03;100.00;99112.33;105288;1290;25382;-69
2023/03/15 07:16:15;;;;;;;4.70;3.60;;;;;;;9.14;100.00;99122.21;105536;1296;26661;-69
2023/03/15 07:18:45;;;;;;;14.10;6.60;;;;;;;9.21;100.00;99151.19;105571;1295;25323;-67
2023/03/15 07:21:14;;;;;;;14.80;5.90;;;;;;;9.29;100.00;99141.86;105426;1296;26710;-68
2023/03/15 07:23:45;;;;;;;19.90;6.30;;;;;;;9.50;100.00;99141.90;106134;1293;22565;-69
2023/03/15 07:26:15;;;;;;;11.40;5.50;;;;;;;9.73;100.00;99156.59;105249;1296;22770;-72
2023/03/15 07:28:50;;;;;;;7.20;4.00;;;;;;;9.89;100.00;99188.98;105201;1296;25906;-69
2023/03/15 07:31:19;;;;;;;18.70;7.60;;;;;;;9.84;100.00;99227.02;105013;1297;24215;-71
2023/03/15 07:33:49;;;;;;;18.00;7.10;;;;;;;9.85;100.00;99218.20;105360;1298;25458;-67
2023/03/15 07:36:18;;;;;;;13.50;5.80;;;;;;;10.02;100.00;99207.28;105169;1297;23034;-73
2023/03/15 07:38:48;;;;;;;31.40;11.70;;;;;;;10.22;100.00;99219.17;105790;1296;22549;-72
2023/03/15 07:41:17;;;;;;;12.70;5.40;;;;;;;10.38;100.00;99213.64;105588;1290;25426;-68
2023/03/15 07:43:56;;;;;;;10.70;6.00;;;;;;;10.52;100.00;99238.94;104052;1291;1004098;-68
2023/03/15 07:46:25;;;;;;;15.60;5.90;;;;;;;10.64;100.00;99243.60;105532;1293;25479;-69
2023/03/15 07:48:55;;;;;;;15.00;5.80;;;;;;;10.79;100.00;99251.75;105438;1296;22546;-66
2023/03/15 07:51:24;;;;;;;14.10;4.70;;;;;;;10.95;100.00;99259.66;105597;1296;25463;-66
2023/03/15 07:53:59;;;;;;;18.00;5.60;;;;;;;11.17;100.00;99253.67;105220;1291;25390;-68
2023/03/15 07:56:27;;;;;;;11.50;5.10;;;;;;;11.39;100.00;99281.09;104760;1296;1003371;-67
2023/03/15 07:58:56;;;;;;;18.00;5.20;;;;;;;11.49;100.00;99298.02;102709;1292;1003615;-68
2023/03/15 08:01:25;;;;;;;10.40;5.30;;;;;;;11.62;100.00;99310.89;105692;1295;25387;-70
2023/03/15 08:03:53;;;;;;;17.70;5.40;;;;;;;11.53;100.00;99348.67;105697;1296;25374;-71
2023/03/15 08:06:26;;;;;;;16.40;5.70;;;;;;;11.29;100.00;99351.61;105535;1298;22939;-69
2023/03/15 08:08:56;;;;;;;20.00;5.50;;;;;;;11.33;100.00;99333.83;105508;1297;23835;-69
2023/03/15 08:11:24;;;;;;;15.30;6.10;;;;;;;11.51;100.00;99322.75;105461;1298;22552;-69
2023/03/15 08:13:58;;;;;;;12.10;5.20;;;;;;;11.69;100.00;99334.48;105632;1287;25584;-77
2023/03/15 08:16:27;;;;;;;8.40;4.40;;;;;;;11.85;100.00;99345.54;105483;1292;22504;-75
2023/03/15 08:19:03;;;;;;;10.90;5.20;;;;;;;11.92;100.00;99353.99;105612;1289;25724;-73
2023/03/15 08:21:37;;;;;;;7.20;4.20;;;;;;;12.00;100.00;99367.98;105031;1295;25472;-72
2023/03/15 08:24:06;;;;;;;13.20;5.10;;;;;;;12.08;100.00;99381.80;105467;1293;25621;-72
2023/03/15 08:26:42;;;;;;;12.30;5.20;;;;;;;12.15;100.00;99388.41;105382;1289;25454;-73
2023/03/15 08:29:11;;;;;;;7.60;4.70;;;;;;;12.21;100.00;99396.11;105642;1288;25475;-73
2023/03/15 08:31:40;;;;;;;8.40;4.40;;;;;;;12.22;100.00;99405.41;105569;1290;22579;-72
2023/03/15 08:34:09;;;;;;;13.40;5.40;;;;;;;12.23;100.00;99396.46;105442;1296;24666;-71
2023/03/15 08:36:48;;;;;;;20.00;7.10;;;;;;;12.34;100.00;99405.01;105484;1293;26553;-73
2023/03/15 08:39:19;;;;;;;15.50;5.60;;;;;;;12.43;100.00;99390.84;105614;1293;24397;-72
2023/03/15 08:41:49;;;;;;;18.30;5.60;;;;;;;12.56;100.00;99393.96;105460;1290;26536;-73
2023/03/15 08:44:18;;;;;;;12.40;5.30;;;;;;;12.66;100.00;99397.02;105388;1293;25447;-73
2023/03/15 08:46:47;;;;;;;10.30;4.80;;;;;;;12.77;100.00;99414.45;105488;1295;25559;-73
2023/03/15 08:49:15;;;;;;;13.60;5.40;;;;;;;12.84;100.00;99420.45;105627;1293;22576;-73
2023/03/15 08:51:46;;;;;;;23.50;13.60;;;;;;;12.96;100.00;99425.89;105643;1289;23180;-74
2023/03/15 08:54:16;;;;;;;11.60;5.60;;;;;;;13.05;100.00;99442.01;105545;1296;26583;-70
2023/03/15 08:56:49;;;;;;;9.70;5.40;;;;;;;13.05;100.00;99470.05;105442;1295;25470;-68
2023/03/15 08:59:17;;;;;;;7.80;5.00;;;;;;;13.05;100.00;99478.63;105502;1290;25589;-73
2023/03/15 09:01:59;;;;;;;16.90;5.80;;;;;;;13.05;100.00;99485.27;105420;1296;22542;-73
2023/03/15 09:04:30;;;;;;;7.40;4.80;;;;;;;13.13;100.00;99491.73;105414;1290;25448;-72
2023/03/15 09:06:59;;;;;;;13.00;6.10;;;;;;;13.24;100.00;99496.22;105392;1296;25321;-72
2023/03/15 09:09:29;;;;;;;13.10;5.50;;;;;;;13.35;100.00;99498.04;105872;1290;26534;-73
2023/03/15 09:11:58;;;;;;;11.20;5.40;;;;;;;13.59;100.00;99498.35;105624;1292;23887;-70
2023/03/15 09:14:27;;;;;;;18.00;6.20;;;;;;;13.84;100.00;99504.98;105728;1288;26714;-73
2023/03/15 09:16:56;;;;;;;14.70;5.50;;;;;;;14.05;100.00;99510.70;107401;1274;22559;-72
2023/03/15 09:19:24;;;;;;;25.00;12.90;;;;;;;14.20;100.00;99525.16;107342;1288;23142;-74
2023/03/15 09:21:53;;;;;;;17.60;7.50;;;;;;;14.21;100.00;99532.23;106569;1296;22572;-73
2023/03/15 09:24:36;;;;;;;15.80;6.10;;;;;;;14.16;100.00;99533.16;105833;1290;25634;-72
2023/03/15 09:27:05;;;;;;;21.90;7.80;;;;;;;14.26;100.00;99531.94;105601;1293;22541;-71
2023/03/15 09:29:36;;;;;;;13.40;6.60;;;;;;;14.35;100.00;99532.20;106103;1295;22562;-70
2023/03/15 09:32:13;;;;;;;35.10;20.30;;;;;;;14.42;100.00;99538.86;105602;1292;22543;-73
2023/03/15 09:34:48;;;;;;;15.90;6.00;;;;;;;14.49;100.00;99537.45;105955;1289;25381;-71
2023/03/15 09:37:17;;;;;;;12.20;5.20;;;;;;;14.45;100.00;99532.09;105170;1292;24221;-72
2023/03/15 09:39:50;;;;;;;9.90;5.30;;;;;;;14.43;100.00;99547.02;105759;1293;22833;-72
2023/03/15 09:42:33;;;;;;;10.60;5.60;;;;;;;14.27;100.00;99556.70;105504;1294;25516;-72
2023/03/15 09:45:17;;;;;;;16.50;6.20;;;;;;;14.23;100.00;99556.62;105800;1292;22536;-75
2023/03/15 09:48:04;;;;;;;14.30;5.50;;;;;;;14.24;100.00;99553.83;105626;1281;26052;-74
2023/03/15 09:50:45;;;;;;;23.60;6.30;;;;;;;14.42;100.00;99540.99;105539;1289;23913;-72
2023/03/15 09:53:23;;;;;;;10.50;5.40;;;;;;;14.59;100.00;99538.89;105286;1273;24413;-72
2023/03/15 09:55:52;;;;;;;13.90;5.50;;;;;;;14.71;100.00;99542.92;105133;1296;24286;-68
2023/03/15 09:58:22;;;;;;;9.90;5.50;;;;;;;14.70;100.00;99535.29;105570;1296;22543;-68
2023/03/15 10:00:54;;;;;;;11.10;5.80;;;;;;;14.58;100.00;99537.05;105454;1296;25292;-73
2023/03/15 10:03:36;;;;;;;11.50;5.80;;;;;;;14.57;100.00;99540.40;106148;1289;26547;-74
2023/03/15 10:06:15;;;;;;;9.40;5.60;;;;;;;14.52;100.00;99534.64;105708;1293;24380;-71
2023/03/15 10:08:45;;;;;;;10.50;5.30;;;;;;;14.42;100.00;99528.11;105823;1290;22690;-68
2023/03/15 10:11:15;;;;;;;9.60;5.80;;;;;;;14.47;100.00;99522.67;105641;1296;22552;-69
2023/03/15 10:14:06;;;;;;;12.70;5.80;;;;;;;14.46;100.00;99528.16;105607;1293;25513;-71
2023/03/15 10:16:48;;;;;;;18.20;6.60;;;;;;;14.51;100.00;99532.55;105556;1293;26570;-74
2023/03/15 10:19:48;;;;;;;14.90;6.50;;;;;;;14.64;100.00;99533.25;105443;1294;23825;-73
2023/03/15 10:22:17;;;;;;;19.20;6.40;;;;;;;14.71;100.00;99527.67;105778;1289;24075;-72
2023/03/15 10:25:30;;;;;;;16.20;7.40;;;;;;;14.70;100.00;99525.30;105654;1292;22495;-77
2023/03/15 10:28:03;;;;;;;15.30;6.50;;;;;;;14.77;100.00;99519.55;105688;1290;25451;-74
2023/03/15 10:30:34;;;;;;;11.30;6.40;;;;;;;14.86;100.00;99507.05;105602;1289;24294;-71
2023/03/15 10:33:17;;;;;;;12.80;6.10;;;;;;;14.98;100.00;99509.27;105494;1293;25586;-70
2023/03/15 10:35:46;;;;;;;17.70;6.80;;;;;;;15.12;100.00;99509.22;105773;1296;25366;-76
2023/03/15 10:38:19;;;;;;;11.20;6.10;;;;;;;15.23;100.00;99508.89;105690;1293;25448;-73
2023/03/15 10:40:58;;;;;;;17.40;6.90;;;;;;;15.33;100.00;99512.09;105652;1289;22552;-72
2023/03/15 10:43:38;;;;;;;15.30;6.40;;;;;;;15.44;100.00;99516.11;105534;1289;25474;-69
2023/03/15 10:46:23;;;;;;;13.80;7.00;;;;;;;15.41;100.00;99508.52;105441;1289;22613;-73
2023/03/15 10:48:58;;;;;;;10.00;6.40;;;;;;;15.26;100.00;99502.09;105335;1289;25480;-69
2023/03/15 10:51:33;;;;;;;8.90;5.60;;;;;;;15.03;100.00;99495.33;105949;1289;23891;-70
2023/03/15 10:54:19;;;;;;;11.50;6.00;;;;;;;14.93;100.00;99492.77;105394;1289;26517;-72
2023/03/15 10:57:05;;;;;;;15.10;6.20;;;;;;;14.96;100.00;99483.75;107057;1293;23911;-71
2023/03/15 10:59:34;;;;;;;17.40;7.50;;;;;;;15.07;100.00;99474.96;105396;1289;23281;-73
2023/03/15 11:02:12;;;;;;;14.50;8.20;;;;;;;15.17;100.00;99474.68;105498;1289;22480;-73
2023/03/15 11:04:48;;;;;;;15.60;6.80;;;;;;;15.24;100.00;99478.84;105491;1290;26536;-71
2023/03/15 11:07:17;;;;;;;19.30;6.40;;;;;;;15.25;100.00;99483.37;105754;1289;22563;-71
2023/03/15 11:09:54;;;;;;;16.70;6.30;;;;;;;15.28;100.00;99483.77;105427;1290;24265;-71
2023/03/15 11:12:28;;;;;;;13.00;6.20;;;;;;;15.32;100.00;99481.76;105319;1296;26547;-71
2023/03/15 11:15:13;;;;;;;20.80;7.70;;;;;;;15.24;100.00;99476.67;105640;1290;26721;-69
2023/03/15 11:17:44;;;;;;;10.10;6.10;;;;;;;15.07;100.00;99468.18;105518;1289;22591;-71
2023/03/15 11:20:30;;;;;;;11.40;6.40;;;;;;;15.10;100.00;99462.73;105537;1293;24296;-72
2023/03/15 11:23:41;;;;;;;23.30;7.60;;;;;;;15.04;100.00;99463.02;106094;1287;25987;-70
2023/03/15 11:26:23;;;;;;;24.50;7.80;;;;;;;14.91;100.00;99460.27;105622;1289;24175;-69
2023/03/15 11:29:08;;;;;;;11.90;6.90;;;;;;;15.02;100.00;99461.01;106254;1289;23816;-69
2023/03/15 11:31:46;;;;;;;25.20;8.50;;;;;;;15.20;100.00;99472.08;105770;1292;22741;-71
2023/03/15 11:34:16;;;;;;;22.60;8.00;;;;;;;15.30;100.00;99479.29;105989;1296;25458;-70
2023/03/15 11:36:46;;;;;;;13.80;6.50;;;;;;;15.40;100.00;99486.42;106152;1289;22700;-72
2023/03/15 11:39:39;;;;;;;20.00;7.80;;;;;;;15.52;100.00;99481.42;105421;1289;23944;-70
2023/03/15 11:42:31;;;;;;;13.90;6.80;;;;;;;15.62;100.00;99477.17;107818;1287;22584;-71
2023/03/15 11:45:35;;;;;;;13.30;6.90;;;;;;;15.71;100.00;99475.28;107637;1289;22579;-73
2023/03/15 11:48:41;;;;;;;15.60;7.50;;;;;;;15.95;100.00;99479.58;105723;1287;25411;-68
2023/03/15 11:51:10;;;;;;;35.00;18.10;;;;;;;16.01;100.00;99478.58;105601;1290;25584;-70
2023/03/15 11:53:53;;;;;;;33.00;17.00;;;;;;;15.98;100.00;99480.59;105323;1296;25492;-69